Terminal Aerodrome Forecast
Issued by NWS Upton, NY

Home | Current Version | Previous Version | Text Only | Print | Product List | Glossary On
Versions: 1 2 3 4 5 6 7 8 9 10 11 12 13 14 15 16 17 18 19 20 21 22 23 24 25 26 27 28 29 30
000
FTUS41 KOKX 260149 AAA
TAFBDR
TAF AMD
KBDR 260149Z 2602/2624 06018G24KT 3SM RA BR OVC006
      TEMPO 2602/2605 2SM +RA BR
     FM260500 06016KT 3SM -RA BR OVC005
      TEMPO 2605/2608 2SM -RA BR
     FM260800 05011KT 1SM -RA BR OVC004
     FM261700 04007KT 3SM BR OVC005
     FM262000 02005KT 5SM BR OVC006=

USA.gov is the U.S. government's official web portal to all federal, state and local government web resources and services.